createdAt,value
2022-12-11T00:02:01.200Z,88.23
2022-12-11T00:05:08.557Z,87.12
2022-12-11T00:08:12.075Z,87.62
2022-12-11T00:11:15.981Z,87.98
2022-12-11T00:14:18.576Z,87.59
2022-12-11T00:17:20.526Z,88.20
2022-12-11T00:20:27.875Z,86.95
2022-12-11T00:23:30.307Z,87.85
2022-12-11T00:26:33.707Z,88.19
2022-12-11T00:29:36.474Z,88.06
2022-12-11T00:32:38.733Z,87.31
2022-12-11T00:35:43.471Z,87.20
2022-12-11T00:38:45.841Z,87.53
2022-12-11T00:41:48.091Z,87.17
2022-12-11T00:44:50.957Z,88.54
2022-12-11T00:47:53.319Z,87.47
2022-12-11T00:50:55.548Z,87.65
2022-12-11T00:53:57.634Z,87.82
2022-12-11T00:57:02.785Z,87.67
2022-12-11T01:00:07.346Z,87.23
2022-12-11T01:03:15.432Z,87.58
2022-12-11T01:06:21.461Z,86.94
2022-12-11T01:09:42.854Z,86.75
2022-12-11T01:12:44.899Z,87.26
2022-12-11T01:15:47.386Z,87.93
2022-12-11T01:18:50.614Z,86.12
2022-12-11T01:21:52.457Z,87.37
2022-12-11T01:24:56.658Z,86.88
2022-12-11T01:28:00.409Z,86.37
2022-12-11T01:31:03.392Z,86.86
2022-12-11T01:34:05.445Z,86.27
2022-12-11T01:37:08.034Z,86.99
2022-12-11T01:40:14.586Z,86.62
2022-12-11T01:43:19.045Z,86.87
2022-12-11T01:46:22.583Z,86.86
2022-12-11T01:49:29.167Z,86.70
2022-12-11T01:52:34.314Z,86.08
2022-12-11T01:55:39.283Z,86.85
2022-12-11T01:58:49.056Z,87.38
2022-12-11T02:02:01.390Z,86.37
2022-12-11T02:05:05.603Z,86.83
2022-12-11T02:08:08.711Z,87.18
2022-12-11T02:11:21.479Z,85.58
2022-12-11T02:14:26.437Z,86.72
2022-12-11T02:17:46.803Z,86.89
2022-12-11T02:20:58.627Z,86.74
2022-12-11T02:24:19.202Z,87.21
2022-12-11T02:27:45.552Z,86.04
2022-12-11T02:30:51.909Z,86.64
2022-12-11T02:34:03.000Z,85.48
2022-12-11T02:37:09.763Z,86.98
2022-12-11T02:40:15.187Z,86.01
2022-12-11T02:43:22.418Z,86.31
2022-12-11T02:46:25.844Z,86.81
2022-12-11T02:49:32.810Z,85.15
2022-12-11T02:52:39.423Z,85.86
2022-12-11T02:55:42.970Z,86.29
2022-12-11T02:58:58.474Z,85.89
2022-12-11T03:02:01.723Z,85.80
2022-12-11T03:05:04.860Z,85.66
2022-12-11T03:08:07.142Z,86.37
2022-12-11T03:11:13.563Z,84.51
2022-12-11T03:14:16.003Z,87.00
2022-12-11T03:17:30.890Z,86.13
2022-12-11T03:20:42.044Z,86.98
2022-12-11T03:23:53.984Z,85.42
2022-12-11T03:27:01.415Z,86.15
2022-12-11T03:30:08.797Z,85.69
2022-12-11T03:33:15.969Z,84.85
2022-12-11T03:36:22.585Z,85.35
2022-12-11T03:39:32.196Z,85.36
2022-12-11T03:42:35.523Z,85.07
2022-12-11T03:45:39.314Z,85.09
2022-12-11T03:48:44.953Z,84.77
2022-12-11T03:51:50.544Z,85.63
2022-12-11T03:54:55.127Z,85.57
2022-12-11T03:57:57.146Z,85.11
2022-12-11T04:00:59.568Z,84.02
2022-12-11T04:04:02.296Z,84.01
2022-12-11T04:07:05.453Z,85.05
2022-12-11T04:10:07.704Z,85.91
2022-12-11T04:13:11.084Z,84.26
2022-12-11T04:16:14.467Z,84.71
2022-12-11T04:19:36.022Z,84.38
2022-12-11T04:22:56.597Z,84.61
2022-12-11T04:26:25.401Z,85.74
2022-12-11T04:29:27.304Z,85.88
2022-12-11T04:32:30.934Z,85.76
2022-12-11T04:35:33.391Z,85.10
2022-12-11T04:38:37.968Z,85.02
2022-12-11T04:41:41.652Z,85.78
2022-12-11T04:44:43.856Z,84.80
2022-12-11T04:47:46.005Z,85.78
2022-12-11T04:50:48.015Z,85.21
2022-12-11T04:53:50.002Z,84.86
2022-12-11T04:56:52.156Z,84.58
2022-12-11T04:59:54.406Z,84.97
2022-12-11T05:02:56.419Z,85.05
2022-12-11T05:05:58.739Z,84.15
2022-12-11T05:09:01.142Z,83.76
2022-12-11T05:12:03.746Z,84.44
2022-12-11T05:15:06.712Z,84.34
2022-12-11T05:18:08.980Z,84.51
2022-12-11T05:21:13.476Z,84.63
2022-12-11T05:24:15.490Z,84.86
2022-12-11T05:27:17.689Z,83.97
2022-12-11T05:30:20.859Z,83.64
2022-12-11T05:33:22.721Z,84.53
2022-12-11T05:36:30.762Z,83.24
2022-12-11T05:39:32.787Z,83.71
2022-12-11T05:42:35.208Z,84.04
2022-12-11T05:45:37.871Z,84.13
2022-12-11T05:48:41.458Z,83.68
2022-12-11T05:51:44.053Z,83.28
2022-12-11T05:54:49.671Z,84.00
2022-12-11T05:57:52.013Z,82.77
2022-12-11T06:00:54.782Z,83.36
2022-12-11T06:03:58.677Z,83.20
2022-12-11T06:07:00.989Z,84.72
2022-12-11T06:10:03.395Z,83.73
2022-12-11T06:13:06.167Z,83.07
2022-12-11T06:16:10.696Z,83.74
2022-12-11T06:19:18.757Z,83.03
2022-12-11T06:22:20.928Z,82.86
2022-12-11T06:25:24.287Z,82.66
2022-12-11T06:28:26.857Z,83.17
2022-12-11T06:31:29.054Z,83.27
2022-12-11T06:34:31.464Z,83.51
2022-12-11T06:37:35.111Z,82.21
2022-12-11T06:40:37.148Z,82.88
2022-12-11T06:43:43.864Z,82.21
2022-12-11T06:46:45.907Z,82.73
2022-12-11T06:49:50.939Z,82.52
2022-12-11T06:52:53.193Z,82.45
2022-12-11T06:55:55.235Z,81.50
2022-12-11T06:58:57.333Z,82.81
2022-12-11T07:02:00.224Z,81.40
2022-12-11T07:05:02.767Z,82.27
2022-12-11T07:08:05.128Z,81.78
2022-12-11T07:11:13.181Z,81.80
2022-12-11T07:14:15.337Z,81.12
2022-12-11T07:17:17.412Z,81.69
2022-12-11T07:20:20.356Z,81.58
2022-12-11T07:23:22.708Z,80.81
2022-12-11T07:26:24.809Z,80.11
2022-12-11T07:29:26.957Z,81.22
2022-12-11T07:32:29.771Z,81.14
2022-12-11T07:35:34.019Z,80.68
2022-12-11T07:38:36.586Z,79.91
2022-12-11T07:41:39.398Z,80.73
2022-12-11T07:44:41.370Z,79.88
2022-12-11T07:47:43.345Z,78.89
2022-12-11T07:50:45.682Z,79.40
2022-12-11T07:53:49.792Z,79.31
2022-12-11T07:56:53.832Z,79.43
2022-12-11T07:59:56.233Z,78.92
2022-12-11T08:02:58.707Z,79.60
2022-12-11T08:06:00.654Z,78.94
2022-12-11T08:09:05.997Z,79.68
2022-12-11T08:12:08.536Z,79.90
2022-12-11T08:15:11.303Z,79.53
2022-12-11T08:18:13.661Z,78.97
2022-12-11T08:21:22.382Z,78.87
2022-12-11T08:24:24.540Z,78.86
2022-12-11T08:27:26.993Z,78.48
2022-12-11T08:30:29.223Z,78.20
2022-12-11T08:33:31.619Z,78.19
2022-12-11T08:36:33.730Z,78.02
2022-12-11T08:39:36.740Z,76.58
2022-12-11T08:42:39.202Z,77.32
2022-12-11T08:45:41.291Z,76.72
2022-12-11T08:48:44.327Z,76.70
2022-12-11T08:51:47.709Z,77.39
2022-12-11T08:54:49.861Z,77.29
2022-12-11T08:57:51.807Z,77.27
2022-12-11T09:00:53.721Z,77.58
2022-12-11T09:03:57.063Z,76.96
2022-12-11T09:06:59.005Z,77.14
2022-12-11T09:10:01.175Z,76.17
2022-12-11T09:13:03.362Z,77.32
2022-12-11T09:16:08.280Z,75.93
2022-12-11T09:19:14.369Z,77.11
2022-12-11T09:22:16.885Z,76.21
2022-12-11T09:25:19.111Z,76.04
2022-12-11T09:28:21.668Z,76.33
2022-12-11T09:31:34.912Z,75.94
2022-12-11T09:34:36.685Z,75.96
2022-12-11T09:37:38.478Z,76.46
2022-12-11T09:40:43.500Z,75.63
2022-12-11T09:44:07.917Z,75.34
2022-12-11T09:47:18.812Z,75.26
2022-12-11T09:50:32.858Z,76.17
2022-12-11T09:53:36.703Z,75.28
2022-12-11T09:56:54.397Z,75.35
2022-12-11T10:00:37.487Z,75.66
2022-12-11T10:04:29.127Z,75.65
2022-12-11T10:07:33.583Z,74.05
2022-12-11T10:10:44.359Z,74.70
2022-12-11T10:14:11.631Z,74.62
2022-12-11T10:17:23.801Z,74.57
2022-12-11T10:20:35.174Z,74.17
2022-12-11T10:23:55.080Z,74.36
2022-12-11T10:26:59.791Z,73.74
2022-12-11T10:30:22.309Z,74.20
2022-12-11T10:33:37.241Z,74.08
2022-12-11T10:36:42.050Z,74.36
2022-12-11T10:39:44.020Z,75.12
2022-12-11T10:42:55.779Z,75.09
2022-12-11T10:45:58.360Z,74.75
2022-12-11T10:49:01.325Z,74.44
2022-12-11T10:52:24.763Z,74.99
2022-12-11T10:55:44.087Z,74.48
2022-12-11T10:58:50.367Z,74.66
2022-12-11T11:01:52.643Z,75.37
2022-12-11T11:04:56.304Z,75.27
2022-12-11T11:08:10.677Z,74.95
2022-12-11T11:11:33.987Z,74.79
2022-12-11T11:14:36.348Z,74.82
2022-12-11T11:17:54.586Z,74.46
2022-12-11T11:20:58.502Z,74.11
2022-12-11T11:24:00.989Z,74.34
2022-12-11T11:27:13.184Z,73.68
2022-12-11T11:30:35.892Z,74.88
2022-12-11T11:33:49.776Z,73.60
2022-12-11T11:37:00.995Z,73.64
2022-12-11T11:40:19.368Z,73.19
2022-12-11T11:43:37.039Z,73.59
2022-12-11T11:46:44.897Z,73.55
2022-12-11T11:49:53.256Z,73.41
2022-12-11T11:53:03.597Z,73.33
2022-12-11T11:56:05.496Z,73.65
2022-12-11T11:59:17.917Z,73.54
2022-12-11T12:02:20.973Z,73.14
2022-12-11T12:05:29.445Z,73.08
2022-12-11T12:08:54.382Z,73.42
2022-12-11T12:12:05.168Z,72.73
2022-12-11T12:15:28.057Z,72.88
2022-12-11T12:19:07.210Z,72.23
2022-12-11T12:22:21.238Z,72.89
2022-12-11T12:25:29.677Z,72.41
2022-12-11T12:28:52.033Z,72.42
2022-12-11T12:32:26.760Z,72.89
2022-12-11T12:35:36.550Z,72.41
2022-12-11T12:38:56.172Z,73.15
2022-12-11T12:42:11.561Z,72.60
2022-12-11T12:45:17.078Z,72.33
2022-12-11T12:48:21.260Z,72.76
2022-12-11T12:51:23.982Z,72.37
2022-12-11T12:54:27.961Z,72.86
2022-12-11T12:57:31.236Z,72.13
2022-12-11T13:00:39.720Z,72.65
2022-12-11T13:03:53.412Z,71.53
2022-12-11T13:06:56.994Z,71.23
2022-12-11T13:10:01.070Z,71.62
2022-12-11T13:13:05.605Z,71.31
2022-12-11T13:16:17.128Z,71.28
2022-12-11T13:19:24.292Z,71.34
2022-12-11T13:22:26.902Z,71.77
2022-12-11T13:25:31.960Z,71.78
2022-12-11T13:28:40.116Z,71.42
2022-12-11T13:31:45.600Z,72.60
2022-12-11T13:35:05.906Z,71.16
2022-12-11T13:38:17.118Z,72.01
2022-12-11T13:41:20.489Z,71.30
2022-12-11T13:44:32.969Z,71.88
2022-12-11T13:47:36.241Z,71.89
2022-12-11T13:50:44.305Z,71.46
2022-12-11T13:53:47.516Z,71.71
2022-12-11T13:56:59.900Z,71.66
2022-12-11T14:00:04.666Z,71.55
2022-12-11T14:03:10.216Z,72.40
2022-12-11T14:06:18.781Z,71.73
2022-12-11T14:09:25.959Z,72.03
2022-12-11T14:12:32.028Z,71.36
2022-12-11T14:15:36.343Z,71.72
2022-12-11T14:18:38.794Z,72.71
2022-12-11T14:21:40.964Z,72.16
2022-12-11T14:24:53.218Z,72.21
2022-12-11T14:27:57.040Z,71.99
2022-12-11T14:31:09.073Z,72.07
2022-12-11T14:34:36.750Z,72.57
2022-12-11T14:37:39.932Z,72.88
2022-12-11T14:40:45.770Z,73.21
2022-12-11T14:43:56.931Z,72.96
2022-12-11T14:47:06.757Z,73.42
2022-12-11T14:50:23.704Z,73.57
2022-12-11T14:53:29.476Z,74.15
2022-12-11T14:56:32.667Z,74.19
2022-12-11T14:59:41.527Z,74.93
2022-12-11T15:02:58.478Z,74.38
2022-12-11T15:06:24.554Z,75.30
2022-12-11T15:09:28.973Z,74.56
2022-12-11T15:12:31.979Z,74.96
2022-12-11T15:15:45.117Z,74.98
2022-12-11T15:18:53.304Z,74.42
2022-12-11T15:22:01.320Z,74.52
2022-12-11T15:25:04.294Z,74.71
2022-12-11T15:28:30.452Z,74.01
2022-12-11T15:31:37.933Z,73.64
2022-12-11T15:35:26.464Z,74.07
2022-12-11T15:38:37.739Z,73.16
2022-12-11T15:41:42.202Z,72.64
2022-12-11T15:44:44.965Z,72.73
2022-12-11T15:47:49.322Z,72.93
2022-12-11T15:50:51.537Z,72.66
2022-12-11T15:53:54.112Z,72.33
2022-12-11T15:56:56.735Z,72.32
2022-12-11T15:59:59.194Z,72.29
2022-12-11T16:03:01.111Z,72.19
2022-12-11T16:06:04.241Z,72.31
2022-12-11T16:09:06.288Z,71.71
2022-12-11T16:12:09.016Z,71.54
2022-12-11T16:15:21.665Z,71.73
2022-12-11T16:18:26.727Z,71.83
2022-12-11T16:21:29.346Z,71.43
2022-12-11T16:24:32.594Z,70.62
2022-12-11T16:27:36.152Z,71.07
2022-12-11T16:30:38.888Z,71.16
2022-12-11T16:33:41.547Z,71.35
2022-12-11T16:36:44.252Z,71.38
2022-12-11T16:39:47.082Z,71.12
2022-12-11T16:42:50.166Z,70.24
2022-12-11T16:45:56.223Z,70.80
2022-12-11T16:48:58.467Z,70.15
2022-12-11T16:52:00.926Z,70.75
2022-12-11T16:55:04.312Z,69.63
2022-12-11T16:58:07.690Z,69.96
2022-12-11T17:01:15.387Z,70.28
2022-12-11T17:04:18.325Z,70.34
2022-12-11T17:07:21.158Z,70.95
2022-12-11T17:10:23.313Z,70.13
2022-12-11T17:13:25.465Z,70.89
2022-12-11T17:16:30.996Z,70.64
2022-12-11T17:19:33.354Z,69.97
2022-12-11T17:22:36.588Z,70.01
2022-12-11T17:25:44.881Z,70.78
2022-12-11T17:28:47.770Z,70.39
2022-12-11T17:31:49.955Z,69.86
2022-12-11T17:34:52.107Z,70.25
2022-12-11T17:37:56.159Z,71.04
2022-12-11T17:41:00.602Z,70.09
2022-12-11T17:44:03.857Z,69.49
2022-12-11T17:47:10.634Z,70.05
2022-12-11T17:50:13.678Z,69.88
2022-12-11T17:53:17.779Z,70.48
2022-12-11T17:56:20.042Z,70.80
2022-12-11T17:59:22.099Z,70.63
2022-12-11T18:02:24.961Z,70.12
2022-12-11T18:05:27.503Z,69.63
2022-12-11T18:08:30.511Z,70.64
2022-12-11T18:11:33.189Z,70.81
2022-12-11T18:14:35.734Z,70.15
2022-12-11T18:17:37.890Z,70.80
2022-12-11T18:20:42.309Z,70.90
2022-12-11T18:23:45.345Z,71.04
2022-12-11T18:26:48.869Z,70.90
2022-12-11T18:29:51.639Z,70.62
2022-12-11T18:32:53.649Z,71.02
2022-12-11T18:35:56.941Z,71.28
2022-12-11T18:39:00.326Z,71.27
2022-12-11T18:42:31.670Z,72.49
2022-12-11T18:45:25.448Z,71.92
2022-12-11T18:48:27.843Z,71.97
2022-12-11T18:51:30.358Z,71.85
2022-12-11T18:54:32.627Z,72.25
2022-12-11T18:57:37.589Z,72.05
2022-12-11T19:00:41.432Z,71.39
2022-12-11T19:03:44.353Z,72.09
2022-12-11T19:06:46.714Z,71.95
2022-12-11T19:09:48.971Z,71.99
2022-12-11T19:12:52.545Z,72.19
2022-12-11T19:15:55.488Z,71.36
2022-12-11T19:19:06.405Z,71.91
2022-12-11T19:22:09.360Z,72.21
2022-12-11T19:25:14.134Z,71.56
2022-12-11T19:28:17.448Z,72.01
2022-12-11T19:31:23.057Z,72.14
2022-12-11T19:34:28.803Z,72.65
2022-12-11T19:37:31.512Z,72.83
2022-12-11T19:40:35.504Z,72.64
2022-12-11T19:43:38.267Z,72.48
2022-12-11T19:46:41.520Z,72.90
2022-12-11T19:49:44.228Z,73.14
2022-12-11T19:52:47.004Z,73.70
2022-12-11T19:55:52.786Z,72.99
2022-12-11T19:58:55.080Z,73.09
2022-12-11T20:01:57.737Z,73.04
2022-12-11T20:04:59.962Z,73.16
2022-12-11T20:08:35.339Z,73.41
2022-12-11T20:11:25.460Z,74.40
2022-12-11T20:14:28.052Z,74.62
2022-12-11T20:17:30.756Z,74.85
2022-12-11T20:20:34.173Z,75.19
2022-12-11T20:23:36.760Z,75.36
2022-12-11T20:26:39.610Z,75.66
2022-12-11T20:29:41.881Z,75.48
2022-12-11T20:32:44.479Z,75.35
2022-12-11T20:35:46.781Z,75.38
2022-12-11T20:38:53.469Z,75.47
2022-12-11T20:41:56.036Z,75.74
2022-12-11T20:44:58.632Z,75.03
2022-12-11T20:48:01.435Z,75.18
2022-12-11T20:51:06.044Z,75.68
2022-12-11T20:54:10.378Z,74.32
2022-12-11T20:57:14.047Z,74.21
2022-12-11T21:00:21.013Z,74.67
2022-12-11T21:03:23.730Z,74.64
2022-12-11T21:06:31.329Z,74.97
2022-12-11T21:09:34.485Z,75.43
2022-12-11T21:12:38.353Z,74.86
2022-12-11T21:15:41.520Z,75.04
2022-12-11T21:18:44.442Z,75.55
2022-12-11T21:21:47.963Z,75.91
2022-12-11T21:24:50.007Z,76.24
2022-12-11T21:27:56.007Z,76.12
2022-12-11T21:31:01.715Z,76.87
2022-12-11T21:34:04.621Z,77.20
2022-12-11T21:37:06.863Z,76.52
2022-12-11T21:40:10.447Z,76.78
2022-12-11T21:43:12.620Z,76.31
2022-12-11T21:46:17.429Z,77.15
2022-12-11T21:49:20.725Z,77.20
2022-12-11T21:52:22.905Z,77.00
2022-12-11T21:55:25.152Z,77.00
2022-12-11T21:58:27.170Z,77.21
2022-12-11T22:01:33.732Z,76.26
2022-12-11T22:04:37.037Z,76.99
2022-12-11T22:07:39.394Z,76.96
2022-12-11T22:10:43.778Z,76.40
2022-12-11T22:13:45.872Z,76.55
2022-12-11T22:16:48.023Z,77.64
2022-12-11T22:19:52.081Z,77.22
2022-12-11T22:22:54.000Z,77.18
2022-12-11T22:25:56.266Z,77.43
2022-12-11T22:28:58.629Z,78.47
2022-12-11T22:32:00.730Z,78.99
2022-12-11T22:35:03.175Z,80.17
2022-12-11T22:38:05.538Z,79.29
2022-12-11T22:41:31.158Z,79.79
2022-12-11T22:44:34.079Z,79.38
2022-12-11T22:47:37.438Z,80.69
2022-12-11T22:50:43.173Z,80.21
2022-12-11T22:53:46.277Z,78.23
2022-12-11T22:56:48.496Z,79.91
2022-12-11T22:59:52.396Z,78.47
2022-12-11T23:02:54.450Z,79.51
2022-12-11T23:05:58.758Z,78.17
2022-12-11T23:09:04.166Z,78.08
2022-12-11T23:12:06.438Z,78.03
2022-12-11T23:15:09.461Z,77.50
2022-12-11T23:18:11.590Z,78.55
2022-12-11T23:21:13.836Z,77.83
2022-12-11T23:24:15.995Z,77.34
2022-12-11T23:27:19.267Z,77.57
2022-12-11T23:30:21.645Z,78.12
2022-12-11T23:33:23.988Z,77.45
2022-12-11T23:36:29.082Z,78.43
2022-12-11T23:39:31.453Z,78.09
2022-12-11T23:42:33.962Z,78.38
2022-12-11T23:45:36.361Z,77.28
2022-12-11T23:48:38.505Z,77.72
2022-12-11T23:51:40.455Z,77.52
2022-12-11T23:54:42.620Z,77.24
2022-12-11T23:57:44.669Z,76.69
